sensor_id;sensor_type;location;lat;lon;timestamp;temperature;humidity
3626;DHT22;1827;50.534;8.316;2023-03-13T00:01:26;7.60;1.00
3626;DHT22;1827;50.534;8.316;2023-03-13T00:03:52;7.50;1.00
3626;DHT22;1827;50.534;8.316;2023-03-13T00:06:20;7.60;1.00
3626;DHT22;1827;50.534;8.316;2023-03-13T00:08:45;7.60;1.00
3626;DHT22;1827;50.534;8.316;2023-03-13T00:11:11;7.60;1.00
3626;DHT22;1827;50.534;8.316;2023-03-13T00:13:37;7.50;1.00
3626;DHT22;1827;50.534;8.316;2023-03-13T00:16:10;7.70;1.00
3626;DHT22;1827;50.534;8.316;2023-03-13T00:18:40;7.60;1.00
3626;DHT22;1827;50.534;8.316;2023-03-13T00:21:08;7.50;1.00
3626;DHT22;1827;50.534;8.316;2023-03-13T00:23:35;7.40;1.00
3626;DHT22;1827;50.534;8.316;2023-03-13T00:26:09;7.50;1.00
3626;DHT22;1827;50.534;8.316;2023-03-13T00:28:35;7.60;1.00
3626;DHT22;1827;50.534;8.316;2023-03-13T00:31:04;7.60;1.00
3626;DHT22;1827;50.534;8.316;2023-03-13T00:33:41;7.40;1.00
3626;DHT22;1827;50.534;8.316;2023-03-13T00:36:07;7.30;1.00
3626;DHT22;1827;50.534;8.316;2023-03-13T00:38:33;7.20;1.00
3626;DHT22;1827;50.534;8.316;2023-03-13T00:41:03;7.10;1.00
3626;DHT22;1827;50.534;8.316;2023-03-13T00:43:29;7.10;1.00
3626;DHT22;1827;50.534;8.316;2023-03-13T00:45:55;7.10;1.00
3626;DHT22;1827;50.534;8.316;2023-03-13T00:48:20;7.10;1.00
3626;DHT22;1827;50.534;8.316;2023-03-13T00:50:49;7.10;1.00
3626;DHT22;1827;50.534;8.316;2023-03-13T00:53:14;7.10;1.00
3626;DHT22;1827;50.534;8.316;2023-03-13T00:55:50;7.00;1.00
3626;DHT22;1827;50.534;8.316;2023-03-13T00:58:16;7.10;1.00
3626;DHT22;1827;50.534;8.316;2023-03-13T01:00:41;7.10;1.00
3626;DHT22;1827;50.534;8.316;2023-03-13T01:03:07;7.20;1.00
3626;DHT22;1827;50.534;8.316;2023-03-13T01:05:32;7.20;1.00
3626;DHT22;1827;50.534;8.316;2023-03-13T01:07:58;7.00;1.00
3626;DHT22;1827;50.534;8.316;2023-03-13T01:10:23;6.80;1.00
3626;DHT22;1827;50.534;8.316;2023-03-13T01:12:49;6.80;1.00
3626;DHT22;1827;50.534;8.316;2023-03-13T01:15:15;6.80;1.00
3626;DHT22;1827;50.534;8.316;2023-03-13T01:17:44;6.80;1.00
3626;DHT22;1827;50.534;8.316;2023-03-13T01:20:11;6.70;1.00
3626;DHT22;1827;50.534;8.316;2023-03-13T01:22:39;6.80;1.00
3626;DHT22;1827;50.534;8.316;2023-03-13T01:25:05;6.90;1.00
3626;DHT22;1827;50.534;8.316;2023-03-13T01:27:31;6.90;1.00
3626;DHT22;1827;50.534;8.316;2023-03-13T01:30:00;6.90;1.00
3626;DHT22;1827;50.534;8.316;2023-03-13T01:32:25;6.80;1.00
3626;DHT22;1827;50.534;8.316;2023-03-13T01:34:51;6.90;1.00
3626;DHT22;1827;50.534;8.316;2023-03-13T01:37:16;6.90;1.00
3626;DHT22;1827;50.534;8.316;2023-03-13T01:39:42;7.10;1.00
3626;DHT22;1827;50.534;8.316;2023-03-13T01:42:08;7.10;1.00
3626;DHT22;1827;50.534;8.316;2023-03-13T01:44:48;7.10;1.00
3626;DHT22;1827;50.534;8.316;2023-03-13T01:47:14;7.20;1.00
3626;DHT22;1827;50.534;8.316;2023-03-13T01:50:15;7.20;1.00
3626;DHT22;1827;50.534;8.316;2023-03-13T01:52:49;7.20;1.00
3626;DHT22;1827;50.534;8.316;2023-03-13T01:55:25;7.40;1.00
3626;DHT22;1827;50.534;8.316;2023-03-13T01:57:52;7.60;2.00
3626;DHT22;1827;50.534;8.316;2023-03-13T02:00:28;7.60;1.00
3626;DHT22;1827;50.534;8.316;2023-03-13T02:02:55;7.40;1.00
3626;DHT22;1827;50.534;8.316;2023-03-13T02:05:23;7.40;14.20
3626;DHT22;1827;50.534;8.316;2023-03-13T02:07:52;7.40;35.40
3626;DHT22;1827;50.534;8.316;2023-03-13T02:10:18;7.40;70.10
3626;DHT22;1827;50.534;8.316;2023-03-13T02:12:43;7.30;99.90
3626;DHT22;1827;50.534;8.316;2023-03-13T02:15:14;7.40;99.90
3626;DHT22;1827;50.534;8.316;2023-03-13T02:17:40;7.40;99.90
3626;DHT22;1827;50.534;8.316;2023-03-13T02:20:07;7.40;99.90
3626;DHT22;1827;50.534;8.316;2023-03-13T02:22:45;7.50;99.90
3626;DHT22;1827;50.534;8.316;2023-03-13T02:27:41;7.50;99.90
3626;DHT22;1827;50.534;8.316;2023-03-13T02:30:08;7.60;99.90
3626;DHT22;1827;50.534;8.316;2023-03-13T02:32:34;7.60;99.90
3626;DHT22;1827;50.534;8.316;2023-03-13T02:35:01;7.60;1.00
3626;DHT22;1827;50.534;8.316;2023-03-13T02:37:28;7.60;1.00
3626;DHT22;1827;50.534;8.316;2023-03-13T02:39:55;7.70;1.00
3626;DHT22;1827;50.534;8.316;2023-03-13T02:42:22;7.60;1.00
3626;DHT22;1827;50.534;8.316;2023-03-13T02:44:49;7.60;1.00
3626;DHT22;1827;50.534;8.316;2023-03-13T02:47:16;7.50;1.00
3626;DHT22;1827;50.534;8.316;2023-03-13T02:49:42;7.60;1.00
3626;DHT22;1827;50.534;8.316;2023-03-13T02:52:10;7.50;1.00
3626;DHT22;1827;50.534;8.316;2023-03-13T02:54:39;7.50;1.00
3626;DHT22;1827;50.534;8.316;2023-03-13T02:57:05;7.60;1.00
3626;DHT22;1827;50.534;8.316;2023-03-13T02:59:31;7.60;11.00
3626;DHT22;1827;50.534;8.316;2023-03-13T03:01:57;7.60;94.50
3626;DHT22;1827;50.534;8.316;2023-03-13T03:04:23;7.70;99.90
3626;DHT22;1827;50.534;8.316;2023-03-13T03:06:53;7.70;99.90
3626;DHT22;1827;50.534;8.316;2023-03-13T03:09:19;7.70;99.90
3626;DHT22;1827;50.534;8.316;2023-03-13T03:11:45;7.80;99.90
3626;DHT22;1827;50.534;8.316;2023-03-13T03:14:13;7.80;99.90
3626;DHT22;1827;50.534;8.316;2023-03-13T03:16:42;7.80;99.90
3626;DHT22;1827;50.534;8.316;2023-03-13T03:19:08;7.80;99.90
3626;DHT22;1827;50.534;8.316;2023-03-13T03:21:35;8.00;99.90
3626;DHT22;1827;50.534;8.316;2023-03-13T03:24:00;8.00;99.90
3626;DHT22;1827;50.534;8.316;2023-03-13T03:26:26;8.00;99.90
3626;DHT22;1827;50.534;8.316;2023-03-13T03:28:52;8.00;99.90
3626;DHT22;1827;50.534;8.316;2023-03-13T03:31:18;8.00;99.90
3626;DHT22;1827;50.534;8.316;2023-03-13T03:33:44;8.00;99.90
3626;DHT22;1827;50.534;8.316;2023-03-13T03:36:13;8.00;99.90
3626;DHT22;1827;50.534;8.316;2023-03-13T03:38:41;8.00;99.90
3626;DHT22;1827;50.534;8.316;2023-03-13T03:41:10;8.00;99.90
3626;DHT22;1827;50.534;8.316;2023-03-13T03:43:36;8.00;99.90
3626;DHT22;1827;50.534;8.316;2023-03-13T03:46:04;8.00;99.90
3626;DHT22;1827;50.534;8.316;2023-03-13T03:48:30;8.00;99.90
3626;DHT22;1827;50.534;8.316;2023-03-13T03:50:56;8.00;99.90
3626;DHT22;1827;50.534;8.316;2023-03-13T03:53:22;8.00;99.90
3626;DHT22;1827;50.534;8.316;2023-03-13T03:55:48;8.00;99.90
3626;DHT22;1827;50.534;8.316;2023-03-13T03:58:14;7.90;1.00
3626;DHT22;1827;50.534;8.316;2023-03-13T04:01:03;8.00;1.00
3626;DHT22;1827;50.534;8.316;2023-03-13T04:03:30;8.00;1.00
3626;DHT22;1827;50.534;8.316;2023-03-13T04:05:56;8.10;1.00
3626;DHT22;1827;50.534;8.316;2023-03-13T04:08:23;8.10;1.00
3626;DHT22;1827;50.534;8.316;2023-03-13T04:10:49;8.10;1.00
3626;DHT22;1827;50.534;8.316;2023-03-13T04:13:16;8.10;1.00
3626;DHT22;1827;50.534;8.316;2023-03-13T04:15:43;8.10;1.00
3626;DHT22;1827;50.534;8.316;2023-03-13T04:18:11;8.10;1.00
3626;DHT22;1827;50.534;8.316;2023-03-13T04:20:37;8.10;1.00
3626;DHT22;1827;50.534;8.316;2023-03-13T04:23:03;8.10;1.00
3626;DHT22;1827;50.534;8.316;2023-03-13T04:25:29;8.10;1.00
3626;DHT22;1827;50.534;8.316;2023-03-13T04:27:57;8.00;1.00
3626;DHT22;1827;50.534;8.316;2023-03-13T04:30:27;8.00;1.00
3626;DHT22;1827;50.534;8.316;2023-03-13T04:33:05;8.00;1.00
3626;DHT22;1827;50.534;8.316;2023-03-13T04:35:30;8.00;1.00
3626;DHT22;1827;50.534;8.316;2023-03-13T04:38:25;8.00;4.00
3626;DHT22;1827;50.534;8.316;2023-03-13T04:41:03;8.10;99.90
3626;DHT22;1827;50.534;8.316;2023-03-13T04:43:39;8.00;99.90
3626;DHT22;1827;50.534;8.316;2023-03-13T04:46:11;8.00;99.90
3626;DHT22;1827;50.534;8.316;2023-03-13T04:48:55;8.00;99.90
3626;DHT22;1827;50.534;8.316;2023-03-13T04:51:50;8.00;99.90
3626;DHT22;1827;50.534;8.316;2023-03-13T04:54:27;8.00;1.00
3626;DHT22;1827;50.534;8.316;2023-03-13T04:56:59;8.00;1.00
3626;DHT22;1827;50.534;8.316;2023-03-13T04:59:48;8.10;1.00
3626;DHT22;1827;50.534;8.316;2023-03-13T05:02:23;8.10;1.00
3626;DHT22;1827;50.534;8.316;2023-03-13T05:05:02;8.10;1.00
3626;DHT22;1827;50.534;8.316;2023-03-13T05:07:52;8.10;1.00
3626;DHT22;1827;50.534;8.316;2023-03-13T05:10:47;8.30;22.00
3626;DHT22;1827;50.534;8.316;2023-03-13T05:13:48;8.50;99.90
3626;DHT22;1827;50.534;8.316;2023-03-13T05:16:43;8.60;99.90
3626;DHT22;1827;50.534;8.316;2023-03-13T05:19:45;8.70;99.90
3626;DHT22;1827;50.534;8.316;2023-03-13T05:22:40;8.80;99.90
3626;DHT22;1827;50.534;8.316;2023-03-13T05:25:26;9.00;99.90
3626;DHT22;1827;50.534;8.316;2023-03-13T05:28:02;9.10;99.90
3626;DHT22;1827;50.534;8.316;2023-03-13T05:30:52;9.00;99.90
3626;DHT22;1827;50.534;8.316;2023-03-13T05:33:40;9.10;99.90
3626;DHT22;1827;50.534;8.316;2023-03-13T05:36:40;9.20;99.90
3626;DHT22;1827;50.534;8.316;2023-03-13T05:39:06;9.20;99.90
3626;DHT22;1827;50.534;8.316;2023-03-13T05:41:58;9.30;99.90
3626;DHT22;1827;50.534;8.316;2023-03-13T05:44:36;9.40;99.90
3626;DHT22;1827;50.534;8.316;2023-03-13T05:47:20;9.50;99.90
3626;DHT22;1827;50.534;8.316;2023-03-13T05:49:45;9.50;21.60
3626;DHT22;1827;50.534;8.316;2023-03-13T05:52:33;9.50;1.00
3626;DHT22;1827;50.534;8.316;2023-03-13T05:55:25;9.50;1.00
3626;DHT22;1827;50.534;8.316;2023-03-13T05:58:17;9.50;1.00
3626;DHT22;1827;50.534;8.316;2023-03-13T06:01:08;9.50;1.00
3626;DHT22;1827;50.534;8.316;2023-03-13T06:03:36;9.50;1.00
3626;DHT22;1827;50.534;8.316;2023-03-13T06:06:03;9.50;1.00
3626;DHT22;1827;50.534;8.316;2023-03-13T06:08:37;9.50;1.00
3626;DHT22;1827;50.534;8.316;2023-03-13T06:11:03;9.50;1.00
3626;DHT22;1827;50.534;8.316;2023-03-13T06:13:31;9.60;1.00
3626;DHT22;1827;50.534;8.316;2023-03-13T06:16:01;9.60;1.00
3626;DHT22;1827;50.534;8.316;2023-03-13T06:18:37;9.70;19.00
3626;DHT22;1827;50.534;8.316;2023-03-13T06:21:03;9.60;1.00
3626;DHT22;1827;50.534;8.316;2023-03-13T06:23:29;9.60;1.00
3626;DHT22;1827;50.534;8.316;2023-03-13T06:25:54;9.60;1.40
3626;DHT22;1827;50.534;8.316;2023-03-13T06:28:20;9.60;42.20
3626;DHT22;1827;50.534;8.316;2023-03-13T06:30:46;9.60;59.50
3626;DHT22;1827;50.534;8.316;2023-03-13T06:33:12;9.60;95.20
3626;DHT22;1827;50.534;8.316;2023-03-13T06:35:41;9.60;99.90
3626;DHT22;1827;50.534;8.316;2023-03-13T06:38:08;9.50;99.90
3626;DHT22;1827;50.534;8.316;2023-03-13T06:40:34;9.40;99.90
3626;DHT22;1827;50.534;8.316;2023-03-13T06:43:00;9.40;99.90
3626;DHT22;1827;50.534;8.316;2023-03-13T06:45:25;9.40;1.00
3626;DHT22;1827;50.534;8.316;2023-03-13T06:47:51;9.40;1.00
3626;DHT22;1827;50.534;8.316;2023-03-13T06:50:17;9.40;1.00
3626;DHT22;1827;50.534;8.316;2023-03-13T06:52:43;9.30;1.00
3626;DHT22;1827;50.534;8.316;2023-03-13T06:55:12;9.40;1.00
3626;DHT22;1827;50.534;8.316;2023-03-13T06:57:38;9.40;1.00
3626;DHT22;1827;50.534;8.316;2023-03-13T07:00:04;9.50;25.00
3626;DHT22;1827;50.534;8.316;2023-03-13T07:02:31;9.60;99.90
3626;DHT22;1827;50.534;8.316;2023-03-13T07:04:57;9.80;99.90
3626;DHT22;1827;50.534;8.316;2023-03-13T07:07:23;9.70;81.70
3626;DHT22;1827;50.534;8.316;2023-03-13T07:09:49;9.60;19.70
3626;DHT22;1827;50.534;8.316;2023-03-13T07:12:16;9.70;99.90
3626;DHT22;1827;50.534;8.316;2023-03-13T07:14:42;9.80;99.90
3626;DHT22;1827;50.534;8.316;2023-03-13T07:17:07;10.10;99.90
3626;DHT22;1827;50.534;8.316;2023-03-13T07:19:33;10.00;53.30
3626;DHT22;1827;50.534;8.316;2023-03-13T07:21:59;10.10;26.90
3626;DHT22;1827;50.534;8.316;2023-03-13T07:24:24;10.20;1.00
3626;DHT22;1827;50.534;8.316;2023-03-13T07:26:50;10.40;1.00
3626;DHT22;1827;50.534;8.316;2023-03-13T07:29:16;10.60;1.00
3626;DHT22;1827;50.534;8.316;2023-03-13T07:31:44;10.80;1.00
3626;DHT22;1827;50.534;8.316;2023-03-13T07:34:10;11.10;1.00
3626;DHT22;1827;50.534;8.316;2023-03-13T07:36:35;11.30;1.00
3626;DHT22;1827;50.534;8.316;2023-03-13T07:39:01;11.40;1.00
3626;DHT22;1827;50.534;8.316;2023-03-13T07:41:27;11.60;99.90
3626;DHT22;1827;50.534;8.316;2023-03-13T07:43:52;11.70;99.90
3626;DHT22;1827;50.534;8.316;2023-03-13T07:46:18;11.80;1.00
3626;DHT22;1827;50.534;8.316;2023-03-13T07:48:45;11.90;1.00
3626;DHT22;1827;50.534;8.316;2023-03-13T07:51:16;12.10;1.00
3626;DHT22;1827;50.534;8.316;2023-03-13T07:53:46;12.20;99.90
3626;DHT22;1827;50.534;8.316;2023-03-13T07:56:14;12.30;99.90
3626;DHT22;1827;50.534;8.316;2023-03-13T07:58:41;12.20;1.00
3626;DHT22;1827;50.534;8.316;2023-03-13T08:01:18;12.30;1.00
3626;DHT22;1827;50.534;8.316;2023-03-13T08:03:45;12.40;1.00
3626;DHT22;1827;50.534;8.316;2023-03-13T08:06:18;12.40;1.00
3626;DHT22;1827;50.534;8.316;2023-03-13T08:08:45;12.50;1.00
3626;DHT22;1827;50.534;8.316;2023-03-13T08:11:16;12.50;99.90
3626;DHT22;1827;50.534;8.316;2023-03-13T08:13:42;12.50;99.90
3626;DHT22;1827;50.534;8.316;2023-03-13T08:16:13;12.60;99.90
3626;DHT22;1827;50.534;8.316;2023-03-13T08:18:41;12.60;99.90
3626;DHT22;1827;50.534;8.316;2023-03-13T08:21:09;12.60;13.70
3626;DHT22;1827;50.534;8.316;2023-03-13T08:23:35;12.70;1.00
3626;DHT22;1827;50.534;8.316;2023-03-13T08:26:06;12.60;1.00
3626;DHT22;1827;50.534;8.316;2023-03-13T08:28:33;12.60;1.00
3626;DHT22;1827;50.534;8.316;2023-03-13T08:31:09;12.60;1.00
3626;DHT22;1827;50.534;8.316;2023-03-13T08:33:35;12.60;1.00
3626;DHT22;1827;50.534;8.316;2023-03-13T08:38:48;12.60;1.00
3626;DHT22;1827;50.534;8.316;2023-03-13T08:41:16;12.60;1.00
3626;DHT22;1827;50.534;8.316;2023-03-13T08:43:42;12.70;1.00
3626;DHT22;1827;50.534;8.316;2023-03-13T08:46:08;12.80;1.00
3626;DHT22;1827;50.534;8.316;2023-03-13T08:48:34;12.90;1.00
3626;DHT22;1827;50.534;8.316;2023-03-13T08:53:32;13.20;99.90
3626;DHT22;1827;50.534;8.316;2023-03-13T08:55:59;13.40;99.90
3626;DHT22;1827;50.534;8.316;2023-03-13T08:58:25;13.60;99.90
3626;DHT22;1827;50.534;8.316;2023-03-13T09:00:51;13.70;99.90
3626;DHT22;1827;50.534;8.316;2023-03-13T09:03:17;13.70;99.90
3626;DHT22;1827;50.534;8.316;2023-03-13T09:05:43;13.60;99.90
3626;DHT22;1827;50.534;8.316;2023-03-13T09:08:10;13.50;99.90
3626;DHT22;1827;50.534;8.316;2023-03-13T09:10:36;13.50;99.90
3626;DHT22;1827;50.534;8.316;2023-03-13T09:13:02;13.40;99.90
3626;DHT22;1827;50.534;8.316;2023-03-13T09:15:28;13.40;99.90
3626;DHT22;1827;50.534;8.316;2023-03-13T09:17:54;13.50;87.90
3626;DHT22;1827;50.534;8.316;2023-03-13T09:20:20;13.50;52.50
3626;DHT22;1827;50.534;8.316;2023-03-13T09:22:46;13.50;22.90
3626;DHT22;1827;50.534;8.316;2023-03-13T09:25:13;13.50;2.80
3626;DHT22;1827;50.534;8.316;2023-03-13T09:27:39;13.50;1.00
3626;DHT22;1827;50.534;8.316;2023-03-13T09:30:06;13.60;1.00
3626;DHT22;1827;50.534;8.316;2023-03-13T09:32:32;13.70;1.00
3626;DHT22;1827;50.534;8.316;2023-03-13T09:34:58;13.70;1.00
3626;DHT22;1827;50.534;8.316;2023-03-13T09:37:24;13.70;1.00
3626;DHT22;1827;50.534;8.316;2023-03-13T09:39:51;13.70;1.00
3626;DHT22;1827;50.534;8.316;2023-03-13T09:42:27;13.60;1.00
3626;DHT22;1827;50.534;8.316;2023-03-13T09:45:06;13.60;1.00
3626;DHT22;1827;50.534;8.316;2023-03-13T09:47:51;13.70;1.00
3626;DHT22;1827;50.534;8.316;2023-03-13T09:50:34;13.80;1.00
3626;DHT22;1827;50.534;8.316;2023-03-13T09:53:33;13.70;1.00
3626;DHT22;1827;50.534;8.316;2023-03-13T09:55:59;13.70;1.00
3626;DHT22;1827;50.534;8.316;2023-03-13T09:58:27;13.70;1.00
3626;DHT22;1827;50.534;8.316;2023-03-13T10:01:03;13.70;1.00
3626;DHT22;1827;50.534;8.316;2023-03-13T10:03:34;13.80;1.00
3626;DHT22;1827;50.534;8.316;2023-03-13T10:06:11;14.00;1.00
3626;DHT22;1827;50.534;8.316;2023-03-13T10:08:38;14.30;1.00
3626;DHT22;1827;50.534;8.316;2023-03-13T10:11:31;14.50;1.00
3626;DHT22;1827;50.534;8.316;2023-03-13T10:14:11;14.30;1.00
3626;DHT22;1827;50.534;8.316;2023-03-13T10:16:54;14.30;1.00
3626;DHT22;1827;50.534;8.316;2023-03-13T10:19:34;14.30;1.00
3626;DHT22;1827;50.534;8.316;2023-03-13T10:22:07;14.40;1.00
3626;DHT22;1827;50.534;8.316;2023-03-13T10:27:24;14.80;1.00
3626;DHT22;1827;50.534;8.316;2023-03-13T10:29:50;14.80;1.00
3626;DHT22;1827;50.534;8.316;2023-03-13T10:32:17;14.90;1.00
3626;DHT22;1827;50.534;8.316;2023-03-13T10:34:56;15.00;1.00
3626;DHT22;1827;50.534;8.316;2023-03-13T10:37:31;14.80;1.00
3626;DHT22;1827;50.534;8.316;2023-03-13T10:40:23;14.80;1.00
3626;DHT22;1827;50.534;8.316;2023-03-13T10:43:16;14.70;1.00
3626;DHT22;1827;50.534;8.316;2023-03-13T10:45:42;14.80;1.00
3626;DHT22;1827;50.534;8.316;2023-03-13T10:48:19;14.70;1.00
3626;DHT22;1827;50.534;8.316;2023-03-13T10:50:47;14.60;1.00
3626;DHT22;1827;50.534;8.316;2023-03-13T10:53:33;14.30;1.00
3626;DHT22;1827;50.534;8.316;2023-03-13T10:56:14;14.30;1.00
3626;DHT22;1827;50.534;8.316;2023-03-13T11:01:25;14.70;1.00
3626;DHT22;1827;50.534;8.316;2023-03-13T11:03:52;14.60;1.00
3626;DHT22;1827;50.534;8.316;2023-03-13T11:09:01;15.00;1.00
3626;DHT22;1827;50.534;8.316;2023-03-13T11:11:27;14.90;1.00
3626;DHT22;1827;50.534;8.316;2023-03-13T11:14:06;14.80;1.00
3626;DHT22;1827;50.534;8.316;2023-03-13T11:16:38;15.00;1.00
3626;DHT22;1827;50.534;8.316;2023-03-13T11:24:51;15.00;1.00
3626;DHT22;1827;50.534;8.316;2023-03-13T11:33:23;14.60;1.00
3626;DHT22;1827;50.534;8.316;2023-03-13T11:38:32;14.00;24.60
3626;DHT22;1827;50.534;8.316;2023-03-13T11:51:30;13.20;99.90
3626;DHT22;1827;50.534;8.316;2023-03-13T11:54:17;13.20;99.90
3626;DHT22;1827;50.534;8.316;2023-03-13T11:57:06;13.10;1.00
3626;DHT22;1827;50.534;8.316;2023-03-13T12:02:56;13.10;1.00
3626;DHT22;1827;50.534;8.316;2023-03-13T12:05:23;13.00;1.00
3626;DHT22;1827;50.534;8.316;2023-03-13T12:08:01;12.90;1.00
3626;DHT22;1827;50.534;8.316;2023-03-13T12:10:32;13.00;1.00
3626;DHT22;1827;50.534;8.316;2023-03-13T12:13:22;13.00;1.00
3626;DHT22;1827;50.534;8.316;2023-03-13T12:15:55;13.00;1.00
3626;DHT22;1827;50.534;8.316;2023-03-13T12:23:54;12.90;1.00
3626;DHT22;1827;50.534;8.316;2023-03-13T12:27:11;12.90;1.00
3626;DHT22;1827;50.534;8.316;2023-03-13T12:31:58;13.00;1.00
3626;DHT22;1827;50.534;8.316;2023-03-13T12:34:54;12.90;1.00
3626;DHT22;1827;50.534;8.316;2023-03-13T12:37:35;12.90;1.00
3626;DHT22;1827;50.534;8.316;2023-03-13T12:45:16;12.80;1.00
3626;DHT22;1827;50.534;8.316;2023-03-13T12:50:58;12.70;1.00
3626;DHT22;1827;50.534;8.316;2023-03-13T12:56:21;12.70;1.00
3626;DHT22;1827;50.534;8.316;2023-03-13T13:01:43;12.70;1.00
3626;DHT22;1827;50.534;8.316;2023-03-13T13:04:27;12.80;1.00
3626;DHT22;1827;50.534;8.316;2023-03-13T13:07:00;12.80;1.00
3626;DHT22;1827;50.534;8.316;2023-03-13T13:09:33;12.80;1.00
3626;DHT22;1827;50.534;8.316;2023-03-13T13:12:23;12.80;1.00
3626;DHT22;1827;50.534;8.316;2023-03-13T13:17:24;12.80;1.00
3626;DHT22;1827;50.534;8.316;2023-03-13T13:19:51;12.80;1.00
3626;DHT22;1827;50.534;8.316;2023-03-13T13:32:49;12.70;1.00
3626;DHT22;1827;50.534;8.316;2023-03-13T13:37:47;12.80;1.00
3626;DHT22;1827;50.534;8.316;2023-03-13T13:40:27;13.00;1.00
3626;DHT22;1827;50.534;8.316;2023-03-13T13:43:01;13.00;1.00
3626;DHT22;1827;50.534;8.316;2023-03-13T13:45:35;13.10;1.00
3626;DHT22;1827;50.534;8.316;2023-03-13T14:01:26;13.40;1.00
3626;DHT22;1827;50.534;8.316;2023-03-13T14:03:56;13.50;1.00
3626;DHT22;1827;50.534;8.316;2023-03-13T14:06:26;13.50;1.00
3626;DHT22;1827;50.534;8.316;2023-03-13T14:08:56;13.50;1.00
3626;DHT22;1827;50.534;8.316;2023-03-13T14:11:31;13.50;1.00
3626;DHT22;1827;50.534;8.316;2023-03-13T14:14:15;13.40;1.00
3626;DHT22;1827;50.534;8.316;2023-03-13T14:16:49;13.40;1.00
3626;DHT22;1827;50.534;8.316;2023-03-13T14:22:03;13.40;1.00
3626;DHT22;1827;50.534;8.316;2023-03-13T14:24:29;13.40;99.90
3626;DHT22;1827;50.534;8.316;2023-03-13T14:26:55;13.50;99.90
3626;DHT22;1827;50.534;8.316;2023-03-13T14:29:21;13.50;99.90
3626;DHT22;1827;50.534;8.316;2023-03-13T14:31:55;13.50;99.90
3626;DHT22;1827;50.534;8.316;2023-03-13T14:34:22;13.60;99.90
3626;DHT22;1827;50.534;8.316;2023-03-13T14:36:54;13.60;99.90
3626;DHT22;1827;50.534;8.316;2023-03-13T14:42:09;13.60;99.90
3626;DHT22;1827;50.534;8.316;2023-03-13T14:44:36;13.60;99.90
3626;DHT22;1827;50.534;8.316;2023-03-13T14:47:17;13.60;99.90
3626;DHT22;1827;50.534;8.316;2023-03-13T14:49:46;13.60;99.90
3626;DHT22;1827;50.534;8.316;2023-03-13T14:52:43;13.70;99.90
3626;DHT22;1827;50.534;8.316;2023-03-13T14:58:24;13.80;99.90
3626;DHT22;1827;50.534;8.316;2023-03-13T15:00:52;13.80;99.90
3626;DHT22;1827;50.534;8.316;2023-03-13T15:03:23;13.90;99.90
3626;DHT22;1827;50.534;8.316;2023-03-13T15:08:28;13.90;99.90
3626;DHT22;1827;50.534;8.316;2023-03-13T15:10:54;14.00;99.90
3626;DHT22;1827;50.534;8.316;2023-03-13T15:13:34;14.00;99.90
3626;DHT22;1827;50.534;8.316;2023-03-13T15:16:01;14.00;99.90
3626;DHT22;1827;50.534;8.316;2023-03-13T15:18:30;14.00;99.90
3626;DHT22;1827;50.534;8.316;2023-03-13T15:20:58;13.90;99.90
3626;DHT22;1827;50.534;8.316;2023-03-13T15:24:28;13.90;99.90
3626;DHT22;1827;50.534;8.316;2023-03-13T15:26:29;13.80;99.90
3626;DHT22;1827;50.534;8.316;2023-03-13T15:28:55;13.80;99.90
3626;DHT22;1827;50.534;8.316;2023-03-13T15:31:26;13.70;99.90
3626;DHT22;1827;50.534;8.316;2023-03-13T15:33:55;13.60;99.90
3626;DHT22;1827;50.534;8.316;2023-03-13T15:36:22;13.50;99.90
3626;DHT22;1827;50.534;8.316;2023-03-13T15:38:48;13.50;99.90
3626;DHT22;1827;50.534;8.316;2023-03-13T15:41:16;13.50;99.90
3626;DHT22;1827;50.534;8.316;2023-03-13T15:43:42;13.50;99.90
3626;DHT22;1827;50.534;8.316;2023-03-13T15:46:14;13.50;99.90
3626;DHT22;1827;50.534;8.316;2023-03-13T15:48:40;13.60;99.90
3626;DHT22;1827;50.534;8.316;2023-03-13T15:51:14;13.50;99.90
3626;DHT22;1827;50.534;8.316;2023-03-13T15:53:40;13.60;99.90
3626;DHT22;1827;50.534;8.316;2023-03-13T15:56:18;13.60;99.90
3626;DHT22;1827;50.534;8.316;2023-03-13T15:58:46;13.60;99.90
3626;DHT22;1827;50.534;8.316;2023-03-13T16:01:14;13.60;99.90
3626;DHT22;1827;50.534;8.316;2023-03-13T16:03:40;13.60;99.90
3626;DHT22;1827;50.534;8.316;2023-03-13T16:06:20;13.80;99.90
3626;DHT22;1827;50.534;8.316;2023-03-13T16:08:59;14.00;99.90
3626;DHT22;1827;50.534;8.316;2023-03-13T16:11:25;14.10;99.90
3626;DHT22;1827;50.534;8.316;2023-03-13T16:13:51;14.30;99.90
3626;DHT22;1827;50.534;8.316;2023-03-13T16:16:25;14.50;99.00
3626;DHT22;1827;50.534;8.316;2023-03-13T16:18:56;14.60;42.20
3626;DHT22;1827;50.534;8.316;2023-03-13T16:21:25;14.50;3.40
3626;DHT22;1827;50.534;8.316;2023-03-13T16:23:51;14.40;1.00
3626;DHT22;1827;50.534;8.316;2023-03-13T16:26:27;14.40;1.00
3626;DHT22;1827;50.534;8.316;2023-03-13T16:28:53;14.40;1.00
3626;DHT22;1827;50.534;8.316;2023-03-13T16:33:45;14.60;1.00
3626;DHT22;1827;50.534;8.316;2023-03-13T16:36:22;14.70;1.00
3626;DHT22;1827;50.534;8.316;2023-03-13T16:38:49;14.70;1.00
3626;DHT22;1827;50.534;8.316;2023-03-13T16:41:21;14.80;1.00
3626;DHT22;1827;50.534;8.316;2023-03-13T16:43:47;14.70;1.00
3626;DHT22;1827;50.534;8.316;2023-03-13T16:48:44;14.70;1.00
3626;DHT22;1827;50.534;8.316;2023-03-13T16:51:19;14.80;1.00
3626;DHT22;1827;50.534;8.316;2023-03-13T16:53:47;14.60;1.00
3626;DHT22;1827;50.534;8.316;2023-03-13T16:58:41;14.70;1.00
3626;DHT22;1827;50.534;8.316;2023-03-13T17:01:07;14.60;1.00
3626;DHT22;1827;50.534;8.316;2023-03-13T17:03:33;14.50;1.00
3626;DHT22;1827;50.534;8.316;2023-03-13T17:05:59;14.40;1.00
3626;DHT22;1827;50.534;8.316;2023-03-13T17:08:25;14.30;1.00
3626;DHT22;1827;50.534;8.316;2023-03-13T17:10:50;14.30;1.00
3626;DHT22;1827;50.534;8.316;2023-03-13T17:13:16;14.20;1.00
3626;DHT22;1827;50.534;8.316;2023-03-13T17:15:45;14.20;1.00
3626;DHT22;1827;50.534;8.316;2023-03-13T17:18:11;14.20;1.00
3626;DHT22;1827;50.534;8.316;2023-03-13T17:20:37;14.30;1.00
3626;DHT22;1827;50.534;8.316;2023-03-13T17:23:02;14.30;1.00
3626;DHT22;1827;50.534;8.316;2023-03-13T17:25:28;14.30;1.00
3626;DHT22;1827;50.534;8.316;2023-03-13T17:27:55;14.30;1.00
3626;DHT22;1827;50.534;8.316;2023-03-13T17:30:25;14.30;1.00
3626;DHT22;1827;50.534;8.316;2023-03-13T17:32:51;14.40;1.00
3626;DHT22;1827;50.534;8.316;2023-03-13T17:35:18;14.40;1.00
3626;DHT22;1827;50.534;8.316;2023-03-13T17:37:45;14.40;1.00
3626;DHT22;1827;50.534;8.316;2023-03-13T17:40:16;14.40;1.00
3626;DHT22;1827;50.534;8.316;2023-03-13T17:42:44;14.40;1.00
3626;DHT22;1827;50.534;8.316;2023-03-13T17:45:10;14.30;1.00
3626;DHT22;1827;50.534;8.316;2023-03-13T17:47:36;14.30;1.00
3626;DHT22;1827;50.534;8.316;2023-03-13T17:50:13;14.30;1.00
3626;DHT22;1827;50.534;8.316;2023-03-13T17:52:39;14.30;1.00
3626;DHT22;1827;50.534;8.316;2023-03-13T17:55:05;14.30;1.00
3626;DHT22;1827;50.534;8.316;2023-03-13T17:57:31;14.20;1.00
3626;DHT22;1827;50.534;8.316;2023-03-13T17:59:57;14.20;1.00
3626;DHT22;1827;50.534;8.316;2023-03-13T18:02:22;14.30;1.00
3626;DHT22;1827;50.534;8.316;2023-03-13T18:04:48;14.30;1.00
3626;DHT22;1827;50.534;8.316;2023-03-13T18:07:23;14.30;1.00
3626;DHT22;1827;50.534;8.316;2023-03-13T18:09:50;14.20;1.00
3626;DHT22;1827;50.534;8.316;2023-03-13T18:12:16;14.10;1.00
3626;DHT22;1827;50.534;8.316;2023-03-13T18:14:42;14.00;1.00
3626;DHT22;1827;50.534;8.316;2023-03-13T18:17:16;14.00;1.00
3626;DHT22;1827;50.534;8.316;2023-03-13T18:19:42;14.00;1.00
3626;DHT22;1827;50.534;8.316;2023-03-13T18:22:12;14.00;1.00
3626;DHT22;1827;50.534;8.316;2023-03-13T18:24:38;14.10;1.00
3626;DHT22;1827;50.534;8.316;2023-03-13T18:27:10;14.10;1.00
3626;DHT22;1827;50.534;8.316;2023-03-13T18:29:36;14.20;1.00
3626;DHT22;1827;50.534;8.316;2023-03-13T18:32:01;14.20;1.00
3626;DHT22;1827;50.534;8.316;2023-03-13T18:34:27;14.20;1.00
3626;DHT22;1827;50.534;8.316;2023-03-13T18:36:54;14.10;1.00